Big Bend National Park, Texas
Current Conditions -  °F | °C
As of 7:15 PM on Thursday 27 Nov 2014 (Local Time) from KPRS Reporting Station
Clear Clear  
Wind Chill: 57°   Ceiling: Unl
Heat Index: 57°   Visibility: 10mi
Dew Point: 30°   Wind: 3mph
Humidity: 36%   Direction: 350°N
Pressure: 30.28"   Gusts: NA
Location:  29.2813°N, 103.166°W
Report Text: KPRS 280115Z AUTO 35003KT 10SM CLR 14/M01 A3028 RMK AO2 T01371012
Loading
Personal Weather Stations






























Interactive Weather Map New forecast layout! Learn more

10-Day Weather Forecast

Advertisements
Track Severe Weather on mobile